sensor_id;sensor_type;location;lat;lon;timestamp;temperature;humidity
17845;DHT22;9047;53.486;10.218;2024-01-11T00:01:25;-1.80;99.90
17845;DHT22;9047;53.486;10.218;2024-01-11T00:03:53;-1.80;99.90
17845;DHT22;9047;53.486;10.218;2024-01-11T00:06:23;-1.80;99.90
17845;DHT22;9047;53.486;10.218;2024-01-11T00:08:51;-1.80;99.90
17845;DHT22;9047;53.486;10.218;2024-01-11T00:11:19;-1.80;99.90
17845;DHT22;9047;53.486;10.218;2024-01-11T00:13:56;-1.70;99.90
17845;DHT22;9047;53.486;10.218;2024-01-11T00:16:25;-1.70;99.90
17845;DHT22;9047;53.486;10.218;2024-01-11T00:18:55;-1.70;99.90
17845;DHT22;9047;53.486;10.218;2024-01-11T00:21:23;-1.70;99.90
17845;DHT22;9047;53.486;10.218;2024-01-11T00:23:56;-1.60;99.90
17845;DHT22;9047;53.486;10.218;2024-01-11T00:26:24;-1.60;99.90
17845;DHT22;9047;53.486;10.218;2024-01-11T00:29:00;-1.60;99.90
17845;DHT22;9047;53.486;10.218;2024-01-11T00:31:27;-1.60;99.90
17845;DHT22;9047;53.486;10.218;2024-01-11T00:33:54;-1.60;99.90
17845;DHT22;9047;53.486;10.218;2024-01-11T00:36:21;-1.70;99.90
17845;DHT22;9047;53.486;10.218;2024-01-11T00:38:49;-1.70;99.90
17845;DHT22;9047;53.486;10.218;2024-01-11T00:41:16;-1.60;99.90
17845;DHT22;9047;53.486;10.218;2024-01-11T00:43:48;-1.60;99.90
17845;DHT22;9047;53.486;10.218;2024-01-11T00:46:19;-1.60;99.90
17845;DHT22;9047;53.486;10.218;2024-01-11T00:48:48;-1.60;99.90
17845;DHT22;9047;53.486;10.218;2024-01-11T00:51:16;-1.60;99.90
17845;DHT22;9047;53.486;10.218;2024-01-11T00:53:43;-1.60;99.90
17845;DHT22;9047;53.486;10.218;2024-01-11T00:56:17;-1.60;99.90
17845;DHT22;9047;53.486;10.218;2024-01-11T00:58:46;-1.60;99.90
17845;DHT22;9047;53.486;10.218;2024-01-11T01:01:18;-1.60;99.90
17845;DHT22;9047;53.486;10.218;2024-01-11T01:03:50;-1.70;99.90
17845;DHT22;9047;53.486;10.218;2024-01-11T01:06:20;-1.70;99.90
17845;DHT22;9047;53.486;10.218;2024-01-11T01:08:50;-1.60;99.90
17845;DHT22;9047;53.486;10.218;2024-01-11T01:11:17;-1.60;99.90
17845;DHT22;9047;53.486;10.218;2024-01-11T01:13:45;-1.60;99.90
17845;DHT22;9047;53.486;10.218;2024-01-11T01:16:22;-1.60;99.90
17845;DHT22;9047;53.486;10.218;2024-01-11T01:18:51;-1.60;99.90
17845;DHT22;9047;53.486;10.218;2024-01-11T01:21:19;-1.60;99.90
17845;DHT22;9047;53.486;10.218;2024-01-11T01:23:50;-1.60;99.90
17845;DHT22;9047;53.486;10.218;2024-01-11T01:26:20;-1.60;99.90
17845;DHT22;9047;53.486;10.218;2024-01-11T01:28:48;-1.60;99.90
17845;DHT22;9047;53.486;10.218;2024-01-11T01:31:18;-1.60;99.90
17845;DHT22;9047;53.486;10.218;2024-01-11T01:33:45;-1.60;99.90
17845;DHT22;9047;53.486;10.218;2024-01-11T01:36:14;-1.60;99.90
17845;DHT22;9047;53.486;10.218;2024-01-11T01:38:44;-1.60;99.90
17845;DHT22;9047;53.486;10.218;2024-01-11T01:41:16;-1.60;99.90
17845;DHT22;9047;53.486;10.218;2024-01-11T01:43:52;-1.60;99.90
17845;DHT22;9047;53.486;10.218;2024-01-11T01:46:23;-1.70;99.90
17845;DHT22;9047;53.486;10.218;2024-01-11T01:48:51;-1.60;99.90
17845;DHT22;9047;53.486;10.218;2024-01-11T01:51:21;-1.60;99.90
17845;DHT22;9047;53.486;10.218;2024-01-11T01:53:51;-1.60;99.90
17845;DHT22;9047;53.486;10.218;2024-01-11T01:56:21;-1.60;99.90
17845;DHT22;9047;53.486;10.218;2024-01-11T01:58:51;-1.60;99.90
17845;DHT22;9047;53.486;10.218;2024-01-11T02:01:22;-1.60;99.90
17845;DHT22;9047;53.486;10.218;2024-01-11T02:03:53;-1.70;99.90
17845;DHT22;9047;53.486;10.218;2024-01-11T02:06:22;-1.60;99.90
17845;DHT22;9047;53.486;10.218;2024-01-11T02:08:52;-1.60;99.90
17845;DHT22;9047;53.486;10.218;2024-01-11T02:11:23;-1.60;99.90
17845;DHT22;9047;53.486;10.218;2024-01-11T02:13:53;-1.70;99.90
17845;DHT22;9047;53.486;10.218;2024-01-11T02:16:22;-1.60;99.90
17845;DHT22;9047;53.486;10.218;2024-01-11T02:18:49;-1.60;99.90
17845;DHT22;9047;53.486;10.218;2024-01-11T02:21:17;-1.70;99.90
17845;DHT22;9047;53.486;10.218;2024-01-11T02:23:53;-1.70;99.90
17845;DHT22;9047;53.486;10.218;2024-01-11T02:26:22;-1.70;99.90
17845;DHT22;9047;53.486;10.218;2024-01-11T02:28:49;-1.70;99.90
17845;DHT22;9047;53.486;10.218;2024-01-11T02:31:17;-1.70;99.90
17845;DHT22;9047;53.486;10.218;2024-01-11T02:33:46;-1.60;99.90
17845;DHT22;9047;53.486;10.218;2024-01-11T02:36:14;-1.60;99.90
17845;DHT22;9047;53.486;10.218;2024-01-11T02:38:44;-1.60;99.90
17845;DHT22;9047;53.486;10.218;2024-01-11T02:41:18;-1.60;99.90
17845;DHT22;9047;53.486;10.218;2024-01-11T02:43:48;-1.60;99.90
17845;DHT22;9047;53.486;10.218;2024-01-11T02:46:15;-1.60;99.90
17845;DHT22;9047;53.486;10.218;2024-01-11T02:48:43;-1.60;99.90
17845;DHT22;9047;53.486;10.218;2024-01-11T02:51:10;-1.60;99.90
17845;DHT22;9047;53.486;10.218;2024-01-11T02:53:37;-1.60;99.90
17845;DHT22;9047;53.486;10.218;2024-01-11T02:56:09;-1.60;99.90
17845;DHT22;9047;53.486;10.218;2024-01-11T02:58:40;-1.60;99.90
17845;DHT22;9047;53.486;10.218;2024-01-11T03:01:08;-1.50;99.90
17845;DHT22;9047;53.486;10.218;2024-01-11T03:03:37;-1.50;99.90
17845;DHT22;9047;53.486;10.218;2024-01-11T03:06:06;-1.50;99.90
17845;DHT22;9047;53.486;10.218;2024-01-11T03:08:35;-1.50;99.90
17845;DHT22;9047;53.486;10.218;2024-01-11T03:11:04;-1.50;99.90
17845;DHT22;9047;53.486;10.218;2024-01-11T03:13:31;-1.40;99.90
17845;DHT22;9047;53.486;10.218;2024-01-11T03:15:59;-1.50;99.90
17845;DHT22;9047;53.486;10.218;2024-01-11T03:18:26;-1.40;99.90
17845;DHT22;9047;53.486;10.218;2024-01-11T03:20:56;-1.30;99.90
17845;DHT22;9047;53.486;10.218;2024-01-11T03:23:23;-1.30;99.90
17845;DHT22;9047;53.486;10.218;2024-01-11T03:25:52;-1.20;99.90
17845;DHT22;9047;53.486;10.218;2024-01-11T03:28:20;-1.20;99.90
17845;DHT22;9047;53.486;10.218;2024-01-11T03:30:49;-1.10;99.90
17845;DHT22;9047;53.486;10.218;2024-01-11T03:33:21;-1.10;99.90
17845;DHT22;9047;53.486;10.218;2024-01-11T03:35:50;-1.10;99.90
17845;DHT22;9047;53.486;10.218;2024-01-11T03:38:17;-1.10;99.90
17845;DHT22;9047;53.486;10.218;2024-01-11T03:40:47;-1.00;99.90
17845;DHT22;9047;53.486;10.218;2024-01-11T03:43:17;-1.00;99.90
17845;DHT22;9047;53.486;10.218;2024-01-11T03:45:44;-1.00;99.90
17845;DHT22;9047;53.486;10.218;2024-01-11T03:48:12;-1.00;99.90
17845;DHT22;9047;53.486;10.218;2024-01-11T03:50:46;-1.00;99.90
17845;DHT22;9047;53.486;10.218;2024-01-11T03:53:15;-1.00;99.90
17845;DHT22;9047;53.486;10.218;2024-01-11T03:55:43;-0.90;99.90
17845;DHT22;9047;53.486;10.218;2024-01-11T03:58:11;-0.90;99.90
17845;DHT22;9047;53.486;10.218;2024-01-11T04:00:38;-1.00;99.90
17845;DHT22;9047;53.486;10.218;2024-01-11T04:03:08;-1.10;99.90
17845;DHT22;9047;53.486;10.218;2024-01-11T04:05:36;-1.00;99.90
17845;DHT22;9047;53.486;10.218;2024-01-11T04:08:08;-1.00;99.90
17845;DHT22;9047;53.486;10.218;2024-01-11T04:10:36;-1.00;99.90
17845;DHT22;9047;53.486;10.218;2024-01-11T04:13:07;-0.90;99.90
17845;DHT22;9047;53.486;10.218;2024-01-11T04:15:34;-1.00;99.90
17845;DHT22;9047;53.486;10.218;2024-01-11T04:18:04;-1.00;99.90
17845;DHT22;9047;53.486;10.218;2024-01-11T04:20:31;-1.00;99.90
17845;DHT22;9047;53.486;10.218;2024-01-11T04:23:02;-0.90;99.90
17845;DHT22;9047;53.486;10.218;2024-01-11T04:25:30;-0.90;99.90
17845;DHT22;9047;53.486;10.218;2024-01-11T04:27:58;-0.90;99.90
17845;DHT22;9047;53.486;10.218;2024-01-11T04:30:26;-0.80;99.90
17845;DHT22;9047;53.486;10.218;2024-01-11T04:32:55;-0.80;99.90
17845;DHT22;9047;53.486;10.218;2024-01-11T04:35:25;-0.80;99.90
17845;DHT22;9047;53.486;10.218;2024-01-11T04:37:51;-0.80;99.90
17845;DHT22;9047;53.486;10.218;2024-01-11T04:40:18;-0.80;99.90
17845;DHT22;9047;53.486;10.218;2024-01-11T04:42:47;-0.80;99.90
17845;DHT22;9047;53.486;10.218;2024-01-11T04:45:15;-0.80;99.90
17845;DHT22;9047;53.486;10.218;2024-01-11T04:47:42;-0.80;99.90
17845;DHT22;9047;53.486;10.218;2024-01-11T04:50:09;-0.80;99.90
17845;DHT22;9047;53.486;10.218;2024-01-11T04:52:36;-0.80;99.90
17845;DHT22;9047;53.486;10.218;2024-01-11T04:55:10;-0.80;99.90
17845;DHT22;9047;53.486;10.218;2024-01-11T04:57:39;-0.70;99.90
17845;DHT22;9047;53.486;10.218;2024-01-11T05:00:12;-0.80;99.90
17845;DHT22;9047;53.486;10.218;2024-01-11T05:02:39;-0.80;99.90
17845;DHT22;9047;53.486;10.218;2024-01-11T05:05:09;-0.80;99.90
17845;DHT22;9047;53.486;10.218;2024-01-11T05:07:42;-0.70;99.90
17845;DHT22;9047;53.486;10.218;2024-01-11T05:10:10;-0.70;99.90
17845;DHT22;9047;53.486;10.218;2024-01-11T05:12:37;-0.70;99.90
17845;DHT22;9047;53.486;10.218;2024-01-11T05:15:05;-0.70;99.90
17845;DHT22;9047;53.486;10.218;2024-01-11T05:17:35;-0.80;99.90
17845;DHT22;9047;53.486;10.218;2024-01-11T05:20:05;-0.80;99.90
17845;DHT22;9047;53.486;10.218;2024-01-11T05:22:32;-0.80;99.90
17845;DHT22;9047;53.486;10.218;2024-01-11T05:25:01;-0.80;99.90
17845;DHT22;9047;53.486;10.218;2024-01-11T05:27:29;-0.80;99.90
17845;DHT22;9047;53.486;10.218;2024-01-11T05:29:57;-0.70;99.90
17845;DHT22;9047;53.486;10.218;2024-01-11T05:32:24;-0.70;99.90
17845;DHT22;9047;53.486;10.218;2024-01-11T05:34:53;-0.70;99.90
17845;DHT22;9047;53.486;10.218;2024-01-11T05:37:21;-0.70;99.90
17845;DHT22;9047;53.486;10.218;2024-01-11T05:39:48;-0.70;99.90
17845;DHT22;9047;53.486;10.218;2024-01-11T05:42:15;-0.80;99.90
17845;DHT22;9047;53.486;10.218;2024-01-11T05:44:45;-0.80;99.90
17845;DHT22;9047;53.486;10.218;2024-01-11T05:47:12;-0.70;99.90
17845;DHT22;9047;53.486;10.218;2024-01-11T05:49:40;-0.70;99.90
17845;DHT22;9047;53.486;10.218;2024-01-11T05:52:15;-0.70;99.90
17845;DHT22;9047;53.486;10.218;2024-01-11T05:54:42;-0.70;99.90
17845;DHT22;9047;53.486;10.218;2024-01-11T05:57:10;-0.70;99.90
17845;DHT22;9047;53.486;10.218;2024-01-11T05:59:43;-0.70;99.90
17845;DHT22;9047;53.486;10.218;2024-01-11T06:02:10;-0.70;99.90
17845;DHT22;9047;53.486;10.218;2024-01-11T06:04:39;-0.70;99.90
17845;DHT22;9047;53.486;10.218;2024-01-11T06:07:07;-0.70;99.90
17845;DHT22;9047;53.486;10.218;2024-01-11T06:09:34;-0.70;99.90
17845;DHT22;9047;53.486;10.218;2024-01-11T06:12:01;-0.70;99.90
17845;DHT22;9047;53.486;10.218;2024-01-11T06:14:28;-0.70;99.90
17845;DHT22;9047;53.486;10.218;2024-01-11T06:16:58;-0.70;99.90
17845;DHT22;9047;53.486;10.218;2024-01-11T06:19:25;-0.60;99.90
17845;DHT22;9047;53.486;10.218;2024-01-11T06:21:54;-0.60;99.90
17845;DHT22;9047;53.486;10.218;2024-01-11T06:24:24;-0.60;99.90
17845;DHT22;9047;53.486;10.218;2024-01-11T06:26:50;-0.60;99.90
17845;DHT22;9047;53.486;10.218;2024-01-11T06:29:18;-0.60;99.90
17845;DHT22;9047;53.486;10.218;2024-01-11T06:31:45;-0.70;99.90
17845;DHT22;9047;53.486;10.218;2024-01-11T06:34:12;-0.60;99.90
17845;DHT22;9047;53.486;10.218;2024-01-11T06:36:38;-0.60;99.90
17845;DHT22;9047;53.486;10.218;2024-01-11T06:39:05;-0.70;99.90
17845;DHT22;9047;53.486;10.218;2024-01-11T06:41:34;-0.70;99.90
17845;DHT22;9047;53.486;10.218;2024-01-11T06:44:01;-0.70;99.90
17845;DHT22;9047;53.486;10.218;2024-01-11T06:46:29;-0.70;99.90
17845;DHT22;9047;53.486;10.218;2024-01-11T06:48:56;-0.70;99.90
17845;DHT22;9047;53.486;10.218;2024-01-11T06:51:23;-0.70;99.90
17845;DHT22;9047;53.486;10.218;2024-01-11T06:53:51;-0.70;99.90
17845;DHT22;9047;53.486;10.218;2024-01-11T06:56:19;-0.70;99.90
17845;DHT22;9047;53.486;10.218;2024-01-11T06:58:49;-0.70;99.90
17845;DHT22;9047;53.486;10.218;2024-01-11T07:01:17;-0.70;99.90
17845;DHT22;9047;53.486;10.218;2024-01-11T07:03:45;-0.70;99.90
17845;DHT22;9047;53.486;10.218;2024-01-11T07:06:13;-0.70;99.90
17845;DHT22;9047;53.486;10.218;2024-01-11T07:08:40;-0.70;99.90
17845;DHT22;9047;53.486;10.218;2024-01-11T07:11:07;-0.70;99.90
17845;DHT22;9047;53.486;10.218;2024-01-11T07:13:34;-0.70;99.90
17845;DHT22;9047;53.486;10.218;2024-01-11T07:16:03;-0.70;99.90
17845;DHT22;9047;53.486;10.218;2024-01-11T07:18:31;-0.70;99.90
17845;DHT22;9047;53.486;10.218;2024-01-11T07:20:59;-0.70;99.90
17845;DHT22;9047;53.486;10.218;2024-01-11T07:23:27;-0.60;99.90
17845;DHT22;9047;53.486;10.218;2024-01-11T07:25:54;-0.60;99.90
17845;DHT22;9047;53.486;10.218;2024-01-11T07:28:21;-0.60;99.90
17845;DHT22;9047;53.486;10.218;2024-01-11T07:30:50;-0.60;99.90
17845;DHT22;9047;53.486;10.218;2024-01-11T07:33:23;-0.60;99.90
17845;DHT22;9047;53.486;10.218;2024-01-11T07:35:50;-0.60;99.90
17845;DHT22;9047;53.486;10.218;2024-01-11T07:38:21;-0.60;99.90
17845;DHT22;9047;53.486;10.218;2024-01-11T07:40:49;-0.50;99.90
17845;DHT22;9047;53.486;10.218;2024-01-11T07:43:19;-0.50;99.90
17845;DHT22;9047;53.486;10.218;2024-01-11T07:45:47;-0.50;99.90
17845;DHT22;9047;53.486;10.218;2024-01-11T07:48:14;-0.50;99.90
17845;DHT22;9047;53.486;10.218;2024-01-11T07:50:44;-0.50;99.90
17845;DHT22;9047;53.486;10.218;2024-01-11T07:53:11;-0.40;99.90
17845;DHT22;9047;53.486;10.218;2024-01-11T07:55:38;-0.40;99.90
17845;DHT22;9047;53.486;10.218;2024-01-11T07:58:07;-0.40;99.90
17845;DHT22;9047;53.486;10.218;2024-01-11T08:00:40;-0.40;99.90
17845;DHT22;9047;53.486;10.218;2024-01-11T08:03:08;-0.40;99.90
17845;DHT22;9047;53.486;10.218;2024-01-11T08:05:35;-0.40;99.90
17845;DHT22;9047;53.486;10.218;2024-01-11T08:08:04;-0.40;99.90
17845;DHT22;9047;53.486;10.218;2024-01-11T08:10:31;-0.30;99.90
17845;DHT22;9047;53.486;10.218;2024-01-11T08:12:58;-0.30;99.90
17845;DHT22;9047;53.486;10.218;2024-01-11T08:15:28;-0.30;99.90
17845;DHT22;9047;53.486;10.218;2024-01-11T08:17:55;-0.20;99.90
17845;DHT22;9047;53.486;10.218;2024-01-11T08:20:24;-0.20;99.90
17845;DHT22;9047;53.486;10.218;2024-01-11T08:22:52;-0.20;99.90
17845;DHT22;9047;53.486;10.218;2024-01-11T08:25:20;-0.20;99.90
17845;DHT22;9047;53.486;10.218;2024-01-11T08:27:48;-0.20;99.90
17845;DHT22;9047;53.486;10.218;2024-01-11T08:30:15;-0.10;99.90
17845;DHT22;9047;53.486;10.218;2024-01-11T08:32:42;-0.10;99.90
17845;DHT22;9047;53.486;10.218;2024-01-11T08:35:10;0.00;99.90
17845;DHT22;9047;53.486;10.218;2024-01-11T08:37:37;0.00;99.90
17845;DHT22;9047;53.486;10.218;2024-01-11T08:40:07;0.00;99.90
17845;DHT22;9047;53.486;10.218;2024-01-11T08:42:36;0.10;99.90
17845;DHT22;9047;53.486;10.218;2024-01-11T08:45:05;0.10;99.90
17845;DHT22;9047;53.486;10.218;2024-01-11T08:47:33;0.20;99.90
17845;DHT22;9047;53.486;10.218;2024-01-11T08:50:01;0.20;99.90
17845;DHT22;9047;53.486;10.218;2024-01-11T08:52:31;0.20;99.90
17845;DHT22;9047;53.486;10.218;2024-01-11T08:54:59;0.20;99.90
17845;DHT22;9047;53.486;10.218;2024-01-11T08:57:25;0.20;99.90
17845;DHT22;9047;53.486;10.218;2024-01-11T08:59:54;0.30;99.90
17845;DHT22;9047;53.486;10.218;2024-01-11T09:02:21;0.30;99.90
17845;DHT22;9047;53.486;10.218;2024-01-11T09:04:48;0.30;99.90
17845;DHT22;9047;53.486;10.218;2024-01-11T09:07:23;0.30;99.90
17845;DHT22;9047;53.486;10.218;2024-01-11T09:09:50;0.30;99.90
17845;DHT22;9047;53.486;10.218;2024-01-11T09:12:17;0.40;99.90
17845;DHT22;9047;53.486;10.218;2024-01-11T09:14:44;0.40;99.90
17845;DHT22;9047;53.486;10.218;2024-01-11T09:17:14;0.50;99.90
17845;DHT22;9047;53.486;10.218;2024-01-11T09:19:46;0.60;99.90
17845;DHT22;9047;53.486;10.218;2024-01-11T09:22:28;0.60;99.90
17845;DHT22;9047;53.486;10.218;2024-01-11T09:24:57;0.60;99.90
17845;DHT22;9047;53.486;10.218;2024-01-11T09:27:24;0.70;99.90
17845;DHT22;9047;53.486;10.218;2024-01-11T09:29:51;0.70;99.90
17845;DHT22;9047;53.486;10.218;2024-01-11T09:32:20;0.70;99.90
17845;DHT22;9047;53.486;10.218;2024-01-11T09:34:47;0.80;99.90
17845;DHT22;9047;53.486;10.218;2024-01-11T09:37:16;0.80;99.90
17845;DHT22;9047;53.486;10.218;2024-01-11T09:39:43;0.90;99.90
17845;DHT22;9047;53.486;10.218;2024-01-11T09:42:10;0.90;99.90
17845;DHT22;9047;53.486;10.218;2024-01-11T09:44:38;0.90;99.90
17845;DHT22;9047;53.486;10.218;2024-01-11T09:47:06;1.00;99.90
17845;DHT22;9047;53.486;10.218;2024-01-11T09:49:36;1.00;99.90
17845;DHT22;9047;53.486;10.218;2024-01-11T09:52:07;1.00;99.90
17845;DHT22;9047;53.486;10.218;2024-01-11T09:54:37;1.00;99.90
17845;DHT22;9047;53.486;10.218;2024-01-11T09:57:07;1.10;99.90
17845;DHT22;9047;53.486;10.218;2024-01-11T09:59:36;1.10;99.90
17845;DHT22;9047;53.486;10.218;2024-01-11T10:02:04;1.10;99.90
17845;DHT22;9047;53.486;10.218;2024-01-11T10:04:34;1.20;99.90
17845;DHT22;9047;53.486;10.218;2024-01-11T10:07:04;1.20;99.90
17845;DHT22;9047;53.486;10.218;2024-01-11T10:09:32;1.20;99.90
17845;DHT22;9047;53.486;10.218;2024-01-11T10:12:01;1.20;99.90
17845;DHT22;9047;53.486;10.218;2024-01-11T10:14:31;1.20;99.90
17845;DHT22;9047;53.486;10.218;2024-01-11T10:16:59;1.10;99.90
17845;DHT22;9047;53.486;10.218;2024-01-11T10:19:27;1.10;99.90
17845;DHT22;9047;53.486;10.218;2024-01-11T10:21:54;1.10;99.90
17845;DHT22;9047;53.486;10.218;2024-01-11T10:24:23;1.10;99.90
17845;DHT22;9047;53.486;10.218;2024-01-11T10:26:52;1.10;99.90
17845;DHT22;9047;53.486;10.218;2024-01-11T10:29:22;1.10;99.90
17845;DHT22;9047;53.486;10.218;2024-01-11T10:31:52;1.10;99.90
17845;DHT22;9047;53.486;10.218;2024-01-11T10:34:19;1.10;99.90
17845;DHT22;9047;53.486;10.218;2024-01-11T10:36:46;1.10;99.90
17845;DHT22;9047;53.486;10.218;2024-01-11T10:39:16;1.10;99.90
17845;DHT22;9047;53.486;10.218;2024-01-11T10:41:51;1.20;99.90
17845;DHT22;9047;53.486;10.218;2024-01-11T10:44:19;1.30;99.90
17845;DHT22;9047;53.486;10.218;2024-01-11T10:46:49;1.30;99.90
17845;DHT22;9047;53.486;10.218;2024-01-11T10:49:17;1.30;99.90
17845;DHT22;9047;53.486;10.218;2024-01-11T10:51:49;1.40;99.90
17845;DHT22;9047;53.486;10.218;2024-01-11T10:54:20;1.40;99.90
17845;DHT22;9047;53.486;10.218;2024-01-11T10:56:50;1.60;99.90
17845;DHT22;9047;53.486;10.218;2024-01-11T10:59:23;1.60;99.90
17845;DHT22;9047;53.486;10.218;2024-01-11T11:01:53;1.70;99.90
17845;DHT22;9047;53.486;10.218;2024-01-11T11:04:22;1.60;99.90
17845;DHT22;9047;53.486;10.218;2024-01-11T11:07:00;1.60;99.90
17845;DHT22;9047;53.486;10.218;2024-01-11T11:09:28;1.60;99.90
17845;DHT22;9047;53.486;10.218;2024-01-11T11:11:58;1.60;99.90
17845;DHT22;9047;53.486;10.218;2024-01-11T11:14:30;1.60;99.90
17845;DHT22;9047;53.486;10.218;2024-01-11T11:16:58;1.60;99.90
17845;DHT22;9047;53.486;10.218;2024-01-11T11:19:28;1.60;99.90
17845;DHT22;9047;53.486;10.218;2024-01-11T11:21:57;1.60;99.90
17845;DHT22;9047;53.486;10.218;2024-01-11T11:24:23;1.70;99.90
17845;DHT22;9047;53.486;10.218;2024-01-11T11:26:51;1.70;99.90
17845;DHT22;9047;53.486;10.218;2024-01-11T11:29:20;1.70;99.90
17845;DHT22;9047;53.486;10.218;2024-01-11T11:31:47;1.70;99.90
17845;DHT22;9047;53.486;10.218;2024-01-11T11:34:19;1.70;99.90
17845;DHT22;9047;53.486;10.218;2024-01-11T11:36:47;1.70;99.90
17845;DHT22;9047;53.486;10.218;2024-01-11T11:39:18;1.70;99.90
17845;DHT22;9047;53.486;10.218;2024-01-11T11:41:45;1.70;99.90
17845;DHT22;9047;53.486;10.218;2024-01-11T11:44:16;1.70;99.90
17845;DHT22;9047;53.486;10.218;2024-01-11T11:46:47;1.70;99.90
17845;DHT22;9047;53.486;10.218;2024-01-11T11:49:14;1.60;99.90
17845;DHT22;9047;53.486;10.218;2024-01-11T11:51:43;1.70;99.90
17845;DHT22;9047;53.486;10.218;2024-01-11T11:54:10;1.70;99.90
17845;DHT22;9047;53.486;10.218;2024-01-11T11:56:40;1.70;99.90
17845;DHT22;9047;53.486;10.218;2024-01-11T11:59:13;1.70;99.90
17845;DHT22;9047;53.486;10.218;2024-01-11T12:01:40;1.70;99.90
17845;DHT22;9047;53.486;10.218;2024-01-11T12:04:15;1.80;99.90
17845;DHT22;9047;53.486;10.218;2024-01-11T12:06:46;1.80;99.90
17845;DHT22;9047;53.486;10.218;2024-01-11T12:09:18;1.80;99.90
17845;DHT22;9047;53.486;10.218;2024-01-11T12:11:46;1.80;99.90
17845;DHT22;9047;53.486;10.218;2024-01-11T12:14:13;1.90;99.90
17845;DHT22;9047;53.486;10.218;2024-01-11T12:16:42;1.90;99.90
17845;DHT22;9047;53.486;10.218;2024-01-11T12:19:10;1.90;99.90
17845;DHT22;9047;53.486;10.218;2024-01-11T12:21:42;1.90;99.90
17845;DHT22;9047;53.486;10.218;2024-01-11T12:24:09;1.90;99.90
17845;DHT22;9047;53.486;10.218;2024-01-11T12:26:38;1.90;99.90
17845;DHT22;9047;53.486;10.218;2024-01-11T12:29:07;1.90;99.90
17845;DHT22;9047;53.486;10.218;2024-01-11T12:31:34;1.90;99.90
17845;DHT22;9047;53.486;10.218;2024-01-11T12:34:02;1.90;99.90
17845;DHT22;9047;53.486;10.218;2024-01-11T12:36:30;1.90;99.90
17845;DHT22;9047;53.486;10.218;2024-01-11T12:38:59;1.90;99.90
17845;DHT22;9047;53.486;10.218;2024-01-11T12:41:26;1.90;99.90
17845;DHT22;9047;53.486;10.218;2024-01-11T12:43:53;2.00;99.90
17845;DHT22;9047;53.486;10.218;2024-01-11T12:46:20;2.00;99.90
17845;DHT22;9047;53.486;10.218;2024-01-11T12:48:48;2.00;99.90
17845;DHT22;9047;53.486;10.218;2024-01-11T12:51:16;2.10;99.90
17845;DHT22;9047;53.486;10.218;2024-01-11T12:53:45;2.00;99.90
17845;DHT22;9047;53.486;10.218;2024-01-11T12:56:14;2.00;99.90
17845;DHT22;9047;53.486;10.218;2024-01-11T12:58:42;2.00;99.90
17845;DHT22;9047;53.486;10.218;2024-01-11T13:01:12;2.10;99.90
17845;DHT22;9047;53.486;10.218;2024-01-11T13:03:44;2.20;99.90
17845;DHT22;9047;53.486;10.218;2024-01-11T13:06:11;2.20;99.90
17845;DHT22;9047;53.486;10.218;2024-01-11T13:08:39;2.30;99.90
17845;DHT22;9047;53.486;10.218;2024-01-11T13:11:08;2.30;99.90
17845;DHT22;9047;53.486;10.218;2024-01-11T13:13:38;2.30;99.90
17845;DHT22;9047;53.486;10.218;2024-01-11T13:16:05;2.30;99.90
17845;DHT22;9047;53.486;10.218;2024-01-11T13:18:39;2.30;99.90
17845;DHT22;9047;53.486;10.218;2024-01-11T13:21:06;2.30;99.90
17845;DHT22;9047;53.486;10.218;2024-01-11T13:23:40;2.30;99.90
17845;DHT22;9047;53.486;10.218;2024-01-11T13:26:09;2.30;99.90
17845;DHT22;9047;53.486;10.218;2024-01-11T13:28:41;2.30;99.90
17845;DHT22;9047;53.486;10.218;2024-01-11T13:31:08;2.30;99.90
17845;DHT22;9047;53.486;10.218;2024-01-11T13:33:37;2.30;99.90
17845;DHT22;9047;53.486;10.218;2024-01-11T13:36:06;2.40;99.90
17845;DHT22;9047;53.486;10.218;2024-01-11T13:38:34;2.40;99.90
17845;DHT22;9047;53.486;10.218;2024-01-11T13:41:01;2.30;99.90
17845;DHT22;9047;53.486;10.218;2024-01-11T13:43:28;2.40;99.90
17845;DHT22;9047;53.486;10.218;2024-01-11T13:45:57;2.40;99.90
17845;DHT22;9047;53.486;10.218;2024-01-11T13:48:24;2.40;99.90
17845;DHT22;9047;53.486;10.218;2024-01-11T13:50:51;2.50;99.90
17845;DHT22;9047;53.486;10.218;2024-01-11T13:53:17;2.40;99.90
17845;DHT22;9047;53.486;10.218;2024-01-11T13:55:45;2.40;99.90
17845;DHT22;9047;53.486;10.218;2024-01-11T13:58:12;2.40;99.90
17845;DHT22;9047;53.486;10.218;2024-01-11T14:00:39;2.40;99.90
17845;DHT22;9047;53.486;10.218;2024-01-11T14:03:07;2.40;99.90
17845;DHT22;9047;53.486;10.218;2024-01-11T14:05:34;2.40;99.90
17845;DHT22;9047;53.486;10.218;2024-01-11T14:08:03;2.40;99.90
17845;DHT22;9047;53.486;10.218;2024-01-11T14:10:32;2.40;99.90
17845;DHT22;9047;53.486;10.218;2024-01-11T14:13:00;2.40;99.90
17845;DHT22;9047;53.486;10.218;2024-01-11T14:15:28;2.40;99.90
17845;DHT22;9047;53.486;10.218;2024-01-11T14:17:55;2.40;99.90
17845;DHT22;9047;53.486;10.218;2024-01-11T14:20:24;2.40;99.90
17845;DHT22;9047;53.486;10.218;2024-01-11T14:25:43;2.40;99.90
17845;DHT22;9047;53.486;10.218;2024-01-11T14:28:13;2.40;99.90
17845;DHT22;9047;53.486;10.218;2024-01-11T14:30:40;2.40;99.90
17845;DHT22;9047;53.486;10.218;2024-01-11T14:33:07;2.40;99.90
17845;DHT22;9047;53.486;10.218;2024-01-11T14:35:37;2.30;99.90
17845;DHT22;9047;53.486;10.218;2024-01-11T14:38:07;2.30;99.90
17845;DHT22;9047;53.486;10.218;2024-01-11T14:40:34;2.30;99.90
17845;DHT22;9047;53.486;10.218;2024-01-11T14:43:01;2.30;99.90
17845;DHT22;9047;53.486;10.218;2024-01-11T14:45:29;2.30;99.90
17845;DHT22;9047;53.486;10.218;2024-01-11T14:47:57;2.30;99.90
17845;DHT22;9047;53.486;10.218;2024-01-11T14:50:24;2.40;99.90
17845;DHT22;9047;53.486;10.218;2024-01-11T14:52:52;2.40;99.90
17845;DHT22;9047;53.486;10.218;2024-01-11T14:55:19;2.40;99.90
17845;DHT22;9047;53.486;10.218;2024-01-11T14:57:46;2.40;99.90
17845;DHT22;9047;53.486;10.218;2024-01-11T15:00:14;2.40;99.90
17845;DHT22;9047;53.486;10.218;2024-01-11T15:02:42;2.40;99.90
17845;DHT22;9047;53.486;10.218;2024-01-11T15:05:11;2.50;99.90
17845;DHT22;9047;53.486;10.218;2024-01-11T15:07:38;2.50;99.90
17845;DHT22;9047;53.486;10.218;2024-01-11T15:10:08;2.50;99.90
17845;DHT22;9047;53.486;10.218;2024-01-11T15:12:37;2.50;99.90
17845;DHT22;9047;53.486;10.218;2024-01-11T15:15:07;2.60;99.90
17845;DHT22;9047;53.486;10.218;2024-01-11T15:17:34;2.60;99.90
17845;DHT22;9047;53.486;10.218;2024-01-11T15:20:03;2.60;99.90
17845;DHT22;9047;53.486;10.218;2024-01-11T15:22:32;2.60;99.90
17845;DHT22;9047;53.486;10.218;2024-01-11T15:25:00;2.60;99.90
17845;DHT22;9047;53.486;10.218;2024-01-11T15:27:29;2.50;99.90
17845;DHT22;9047;53.486;10.218;2024-01-11T15:30:01;2.50;99.90
17845;DHT22;9047;53.486;10.218;2024-01-11T15:32:29;2.50;99.90
17845;DHT22;9047;53.486;10.218;2024-01-11T15:35:06;2.50;99.90
17845;DHT22;9047;53.486;10.218;2024-01-11T15:37:34;2.50;99.90
17845;DHT22;9047;53.486;10.218;2024-01-11T15:40:01;2.50;99.90
17845;DHT22;9047;53.486;10.218;2024-01-11T15:42:31;2.40;99.90
17845;DHT22;9047;53.486;10.218;2024-01-11T15:44:59;2.50;99.90
17845;DHT22;9047;53.486;10.218;2024-01-11T15:47:28;2.40;99.90
17845;DHT22;9047;53.486;10.218;2024-01-11T15:49:55;2.40;99.90